Time;durP1;ratioP1;P1;durP2;ratioP2;P2;SDS_P1;SDS_P2;PMS_P1;PMS_P2;Temp;Humidity;BMP_temperature;BMP_pressure;BME280_temperature;BME280_humidity;BME280_pressure;Samples;Min_cycle;Max_cycle;Signal;HPM_P1;HPM_P2
2022/09/29 00:01:48;;;;;;;11.70;6.00;;;5.70;99.90;;;;;;5014334;28;20021;-65
2022/09/29 00:04:14;;;;;;;11.38;5.50;;;5.60;99.90;;;;;;5011337;28;20030;-70
2022/09/29 00:06:39;;;;;;;10.30;5.75;;;5.60;99.90;;;;;;5011819;28;20045;-67
2022/09/29 00:09:05;;;;;;;12.60;6.63;;;5.60;99.90;;;;;;5011765;28;20108;-64
2022/09/29 00:11:31;;;;;;;15.90;6.07;;;5.60;99.90;;;;;;5011022;28;20041;-65
2022/09/29 00:13:57;;;;;;;13.30;5.82;;;5.60;99.90;;;;;;5011469;28;20178;-65
2022/09/29 00:16:23;;;;;;;11.93;6.22;;;5.60;99.90;;;;;;5010494;28;20042;-67
2022/09/29 00:18:48;;;;;;;9.85;5.55;;;5.60;99.90;;;;;;5011513;28;20061;-65
2022/09/29 00:21:20;;;;;;;11.95;5.88;;;5.50;99.90;;;;;;4993294;28;20084;-68
2022/09/29 00:23:47;;;;;;;13.38;6.10;;;5.50;99.90;;;;;;5011113;28;20041;-66
2022/09/29 00:26:23;;;;;;;13.50;6.70;;;5.50;99.90;;;;;;5010881;28;20033;-70
2022/09/29 00:28:52;;;;;;;14.93;6.35;;;5.50;99.90;;;;;;4993771;28;20029;-65
2022/09/29 00:31:19;;;;;;;13.57;5.53;;;5.60;99.90;;;;;;5010225;28;20025;-66
2022/09/29 00:33:45;;;;;;;12.60;5.80;;;5.50;99.90;;;;;;4974486;28;20123;-66
2022/09/29 00:36:13;;;;;;;11.73;5.85;;;5.40;99.90;;;;;;4991517;28;20042;-66
2022/09/29 00:38:40;;;;;;;14.55;5.80;;;5.40;99.90;;;;;;4990017;28;20034;-64
2022/09/29 00:41:07;;;;;;;35.53;6.72;;;5.40;99.90;;;;;;4991657;28;20487;-66
2022/09/29 00:43:50;;;;;;;25.58;6.43;;;5.40;99.90;;;;;;4990628;28;20650;-65
2022/09/29 00:46:22;;;;;;;15.30;6.00;;;5.40;99.90;;;;;;4977014;28;20402;-68
2022/09/29 00:48:50;;;;;;;10.98;5.60;;;5.40;99.90;;;;;;4993492;28;20032;-66
2022/09/29 00:51:17;;;;;;;11.05;5.53;;;5.50;99.90;;;;;;5010541;28;20037;-70
2022/09/29 00:53:43;;;;;;;9.10;5.00;;;5.50;99.90;;;;;;5010703;28;20053;-65
2022/09/29 00:56:13;;;;;;;12.10;5.85;;;5.50;99.90;;;;;;5010767;28;20555;-64
2022/09/29 00:58:44;;;;;;;14.90;6.78;;;5.50;99.90;;;;;;5010136;28;20064;-66
2022/09/29 01:01:12;;;;;;;13.63;6.60;;;5.50;99.90;;;;;;5010813;28;20065;-66
2022/09/29 01:03:45;;;;;;;17.65;7.75;;;5.50;99.90;;;;;;4992367;28;20943;-66
2022/09/29 01:06:22;;;;;;;11.70;6.25;;;5.50;99.90;;;;;;5010675;28;20049;-65
2022/09/29 01:08:58;;;;;;;13.75;6.68;;;5.50;99.90;;;;;;5010319;28;20033;-66
2022/09/29 01:11:24;;;;;;;12.00;5.47;;;5.60;99.90;;;;;;5009793;28;20057;-65
2022/09/29 01:13:51;;;;;;;13.93;5.93;;;5.60;99.90;;;;;;5010821;28;20069;-66
2022/09/29 01:16:17;;;;;;;9.73;5.25;;;5.60;99.90;;;;;;5009736;28;20034;-69
2022/09/29 01:18:44;;;;;;;9.20;4.78;;;5.60;99.90;;;;;;5010136;28;20297;-65
2022/09/29 01:21:35;;;;;;;9.32;5.03;;;5.60;99.90;;;;;;5010238;28;20498;-67
2022/09/29 01:24:37;;;;;;;12.13;4.90;;;5.60;99.90;;;;;;5009769;28;20144;-69
2022/09/29 01:27:05;;;;;;;9.00;4.60;;;5.60;99.90;;;;;;4990574;28;20118;-64
2022/09/29 01:29:51;;;;;;;8.82;4.43;;;5.50;99.90;;;;;;4989706;28;20034;-65
2022/09/29 01:32:39;;;;;;;9.52;4.43;;;5.40;99.90;;;;;;4976123;28;20038;-70
2022/09/29 01:35:23;;;;;;;10.35;4.70;;;5.50;99.90;;;;;;4990302;28;20541;-67
2022/09/29 01:38:09;;;;;;;13.48;5.80;;;5.50;99.90;;;;;;4990628;28;20080;-65
2022/09/29 01:40:42;;;;;;;13.80;6.05;;;5.50;99.90;;;;;;4992382;28;20131;-64
2022/09/29 01:43:14;;;;;;;12.48;5.93;;;5.50;99.90;;;;;;5010111;28;20379;-65
2022/09/29 01:45:47;;;;;;;14.98;6.47;;;5.50;99.90;;;;;;5009314;28;20030;-66
2022/09/29 01:48:24;;;;;;;10.88;5.88;;;5.50;99.90;;;;;;4992340;28;20032;-65
2022/09/29 01:50:55;;;;;;;10.23;5.60;;;5.60;99.90;;;;;;5009619;28;20034;-67
2022/09/29 01:53:27;;;;;;;;;;;5.70;99.90;;;;;;5009238;28;20064;-69
2022/09/29 01:55:58;;;;;;;13.38;6.10;;;5.70;99.90;;;;;;5009707;28;20429;-66
2022/09/29 01:58:35;;;;;;;10.40;5.43;;;5.80;99.90;;;;;;5009169;28;20030;-65
2022/09/29 02:01:05;;;;;;;9.88;4.80;;;5.80;99.90;;;;;;5009588;28;20454;-65
2022/09/29 02:03:36;;;;;;;9.20;4.50;;;5.70;99.90;;;;;;5011473;28;20360;-67
2022/09/29 02:06:07;;;;;;;10.70;4.85;;;5.70;99.90;;;;;;5009818;28;20390;-65
2022/09/29 02:08:54;;;;;;;14.35;5.50;;;5.70;99.90;;;;;;5008780;28;20026;-66
2022/09/29 02:11:20;;;;;;;12.23;5.60;;;5.70;99.90;;;;;;5009420;28;20028;-69
2022/09/29 02:14:10;;;;;;;13.13;5.68;;;5.70;99.90;;;;;;5009390;28;20030;-65
2022/09/29 02:16:42;;;;;;;11.18;5.70;;;5.70;99.90;;;;;;5008644;28;20126;-66
2022/09/29 02:19:40;;;;;;;10.80;5.93;;;5.70;99.90;;;;;;5009741;28;20493;-66
2022/09/29 02:22:06;;;;;;;9.95;4.88;;;5.70;99.90;;;;;;4998618;28;20069;-65
2022/09/29 02:24:31;;;;;;;18.65;6.00;;;5.70;99.90;;;;;;5008499;28;20475;-65
2022/09/29 02:26:57;;;;;;;10.93;5.18;;;5.60;99.90;;;;;;5009576;28;20032;-65
2022/09/29 02:29:23;;;;;;;13.65;5.22;;;5.70;99.90;;;;;;5008848;28;20560;-69
2022/09/29 02:31:49;;;;;;;13.80;5.95;;;5.70;99.90;;;;;;5009835;28;20459;-66
2022/09/29 02:34:17;;;;;;;13.63;6.78;;;5.70;99.90;;;;;;5009604;28;20033;-66
2022/09/29 02:36:55;;;;;;;13.15;6.32;;;5.70;99.90;;;;;;5008465;28;20955;-65
2022/09/29 02:39:50;;;;;;;13.20;6.47;;;5.70;99.90;;;;;;5009252;28;20037;-70
2022/09/29 02:42:37;;;;;;;11.50;6.00;;;5.80;99.90;;;;;;4988097;28;20564;-65
2022/09/29 02:45:19;;;;;;;11.85;5.65;;;5.80;99.90;;;;;;5009409;28;20037;-64
2022/09/29 02:47:54;;;;;;;12.00;5.65;;;5.80;99.90;;;;;;5008725;28;20022;-66
2022/09/29 02:50:37;;;;;;;16.02;6.80;;;5.80;99.90;;;;;;5009406;28;20025;-68
2022/09/29 02:53:27;;;;;;;15.85;6.40;;;5.90;99.90;;;;;;4989711;28;20034;-65
2022/09/29 02:56:25;;;;;;;17.63;5.50;;;5.90;99.90;;;;;;4975316;28;20450;-66
2022/09/29 02:59:05;;;;;;;17.70;6.13;;;5.90;99.90;;;;;;4989726;28;20085;-65
2022/09/29 03:01:34;;;;;;;12.35;5.47;;;6.00;99.90;;;;;;4988993;28;20509;-66
2022/09/29 03:04:00;;;;;;;11.25;6.03;;;6.00;99.90;;;;;;4993326;28;20035;-66
2022/09/29 03:06:26;;;;;;;12.88;5.95;;;5.90;99.90;;;;;;4999435;28;20087;-68
2022/09/29 03:08:52;;;;;;;10.85;5.20;;;5.90;99.90;;;;;;5012891;28;20026;-65
2022/09/29 03:11:18;;;;;;;16.08;6.38;;;5.90;99.90;;;;;;4995292;28;20022;-65
2022/09/29 03:13:43;;;;;;;10.45;5.93;;;5.80;99.90;;;;;;5012071;28;20038;-65
2022/09/29 03:16:09;;;;;;;12.68;6.13;;;5.80;99.90;;;;;;5012736;28;20037;-65
2022/09/29 03:18:35;;;;;;;13.55;5.63;;;5.80;99.90;;;;;;5011911;28;20756;-65
2022/09/29 03:21:00;;;;;;;10.75;5.47;;;5.80;99.90;;;;;;5012418;28;20040;-67
2022/09/29 03:23:26;;;;;;;14.45;6.40;;;5.70;99.90;;;;;;5011368;28;20061;-69
2022/09/29 03:25:51;;;;;;;13.18;6.70;;;5.70;99.90;;;;;;5012570;28;20561;-65
2022/09/29 03:28:17;;;;;;;13.88;6.85;;;5.70;99.90;;;;;;5012634;28;20022;-65
2022/09/29 03:30:44;;;;;;;13.95;7.03;;;5.80;99.90;;;;;;5011537;28;20042;-66
2022/09/29 03:33:10;;;;;;;13.07;6.07;;;5.80;99.90;;;;;;5012178;28;20120;-66
2022/09/29 03:35:35;;;;;;;12.48;6.15;;;5.80;99.90;;;;;;5011524;28;20049;-68
2022/09/29 03:38:01;;;;;;;20.35;9.25;;;5.80;99.90;;;;;;5012417;28;20030;-65
2022/09/29 03:40:27;;;;;;;18.85;9.40;;;5.70;99.90;;;;;;5011705;28;20058;-70
2022/09/29 03:42:52;;;;;;;16.10;8.35;;;5.70;99.90;;;;;;5012347;28;20033;-64
2022/09/29 03:45:18;;;;;;;19.63;8.00;;;5.70;99.90;;;;;;5012282;28;20026;-65
2022/09/29 03:47:44;;;;;;;19.67;6.78;;;5.70;99.90;;;;;;4993732;28;20030;-65
2022/09/29 03:50:12;;;;;;;16.02;7.13;;;5.70;99.90;;;;;;5012229;28;20034;-66
2022/09/29 03:52:37;;;;;;;13.45;6.80;;;5.60;99.90;;;;;;5011363;28;20026;-66
2022/09/29 03:55:03;;;;;;;15.27;7.15;;;5.50;99.90;;;;;;5011553;28;20054;-66
2022/09/29 03:57:29;;;;;;;17.05;7.40;;;5.50;99.90;;;;;;5011219;28;20034;-65
2022/09/29 03:59:56;;;;;;;15.38;7.53;;;5.50;99.90;;;;;;5012034;28;20064;-65
2022/09/29 04:02:22;;;;;;;13.30;7.00;;;5.50;99.90;;;;;;4994297;28;20065;-65
2022/09/29 04:04:47;;;;;;;12.57;6.75;;;5.50;99.90;;;;;;5012724;28;20041;-65
2022/09/29 04:07:14;;;;;;;17.20;7.18;;;5.50;99.90;;;;;;5018093;28;20461;-66
2022/09/29 04:09:39;;;;;;;14.40;7.18;;;5.50;99.90;;;;;;5010823;28;20037;-66
2022/09/29 04:12:05;;;;;;;13.18;6.68;;;5.50;99.90;;;;;;5011987;28;20026;-66
2022/09/29 04:14:31;;;;;;;15.30;7.15;;;5.50;99.90;;;;;;4993171;28;20073;-65
2022/09/29 04:16:56;;;;;;;15.40;7.00;;;5.50;99.90;;;;;;5011634;28;20092;-65
2022/09/29 04:19:22;;;;;;;14.68;6.65;;;5.40;99.90;;;;;;5011875;28;20231;-65
2022/09/29 04:21:48;;;;;;;17.55;7.22;;;5.50;99.90;;;;;;5010660;28;20102;-65
2022/09/29 04:24:13;;;;;;;17.10;6.97;;;5.40;99.90;;;;;;5011552;28;20061;-64
2022/09/29 04:26:39;;;;;;;15.23;7.45;;;5.30;99.90;;;;;;5011042;28;20107;-65
2022/09/29 04:29:05;;;;;;;18.27;8.35;;;5.30;99.90;;;;;;5011369;28;20041;-65
2022/09/29 04:31:31;;;;;;;17.63;8.57;;;5.30;99.90;;;;;;5010544;28;20017;-65
2022/09/29 04:33:56;;;;;;;16.98;8.07;;;5.30;99.90;;;;;;5011094;28;20382;-65
2022/09/29 04:36:22;;;;;;;16.98;6.47;;;5.40;99.90;;;;;;5010864;28;20037;-65
2022/09/29 04:38:50;;;;;;;14.50;7.35;;;5.40;99.90;;;;;;5009961;28;20115;-66
2022/09/29 04:41:16;;;;;;;19.45;10.13;;;5.50;99.90;;;;;;5011147;28;20045;-65
2022/09/29 04:43:42;;;;;;;20.73;10.60;;;5.50;99.90;;;;;;5010303;28;20106;-65
2022/09/29 04:46:08;;;;;;;27.23;10.07;;;5.50;99.90;;;;;;5011067;28;20374;-65
2022/09/29 04:48:35;;;;;;;19.35;9.68;;;5.40;99.90;;;;;;5010040;28;20379;-65
2022/09/29 04:51:00;;;;;;;113.28;10.40;;;5.40;99.90;;;;;;5011041;28;20099;-66
2022/09/29 04:53:27;;;;;;;17.92;8.07;;;5.30;99.90;;;;;;5010753;28;20046;-65
2022/09/29 04:55:52;;;;;;;18.88;7.65;;;5.20;99.90;;;;;;5010015;28;20045;-65
2022/09/29 04:58:18;;;;;;;18.67;7.20;;;5.10;99.90;;;;;;5010686;28;20026;-65
2022/09/29 05:00:44;;;;;;;14.00;6.93;;;5.10;99.90;;;;;;5010157;28;20030;-65
2022/09/29 05:03:10;;;;;;;15.95;7.85;;;5.20;99.90;;;;;;5010845;28;20080;-65
2022/09/29 05:05:36;;;;;;;16.80;8.50;;;5.10;99.90;;;;;;4992045;28;20038;-65
2022/09/29 05:08:05;;;;;;;15.18;7.57;;;5.10;99.90;;;;;;5010625;28;20049;-65
2022/09/29 05:10:31;;;;;;;16.48;6.63;;;5.10;99.90;;;;;;5009987;28;20116;-69
2022/09/29 05:12:57;;;;;;;13.18;6.80;;;5.20;99.90;;;;;;5010424;28;20104;-65
2022/09/29 05:15:22;;;;;;;15.82;6.72;;;5.10;99.90;;;;;;5010570;28;20030;-64
2022/09/29 05:17:48;;;;;;;13.75;7.35;;;5.20;99.90;;;;;;5009398;28;20438;-65
2022/09/29 05:20:15;;;;;;;19.40;9.23;;;5.20;99.90;;;;;;5010392;28;20033;-65
2022/09/29 05:22:41;;;;;;;19.10;8.10;;;5.30;99.90;;;;;;4991920;28;20044;-65
2022/09/29 05:25:07;;;;;;;19.00;7.50;;;5.30;99.90;;;;;;5009763;28;20497;-65
2022/09/29 05:27:37;;;;;;;19.00;7.70;;;5.30;99.90;;;;;;5009568;28;20033;-69
2022/09/29 05:30:03;;;;;;;14.75;7.38;;;5.30;99.90;;;;;;5010599;28;20026;-65
2022/09/29 05:32:29;;;;;;;17.08;9.15;;;5.40;99.90;;;;;;5010403;28;20053;-65
2022/09/29 05:34:55;;;;;;;16.98;9.02;;;5.40;99.90;;;;;;5009604;28;20072;-65
2022/09/29 05:37:20;;;;;;;20.80;9.93;;;5.40;99.90;;;;;;5009813;28;20049;-67
2022/09/29 05:39:46;;;;;;;25.40;10.85;;;5.50;99.90;;;;;;5009391;28;20036;-66
2022/09/29 05:42:12;;;;;;;24.40;11.15;;;5.50;99.90;;;;;;5010185;28;20490;-65
2022/09/29 05:44:38;;;;;;;24.27;11.88;;;5.60;99.90;;;;;;5009225;28;20026;-65
2022/09/29 05:47:04;;;;;;;23.77;8.85;;;5.60;99.90;;;;;;5010078;28;20386;-65
2022/09/29 05:49:32;;;;;;;17.20;8.75;;;5.60;99.90;;;;;;5010053;28;20056;-65
2022/09/29 05:51:59;;;;;;;16.73;8.80;;;5.60;99.90;;;;;;5009515;28;20026;-67
2022/09/29 05:54:26;;;;;;;26.30;9.50;;;5.60;99.90;;;;;;5009926;28;20104;-66
2022/09/29 05:56:52;;;;;;;21.38;8.68;;;5.60;99.90;;;;;;5009034;28;20128;-65
2022/09/29 05:59:17;;;;;;;18.80;8.57;;;5.60;99.90;;;;;;5009949;28;20109;-66
2022/09/29 06:01:43;;;;;;;15.07;7.43;;;5.70;99.90;;;;;;5008805;28;20034;-66
2022/09/29 06:04:09;;;;;;;13.65;6.97;;;5.70;99.90;;;;;;5009035;28;20038;-65
2022/09/29 06:06:35;;;;;;;16.67;7.22;;;5.70;99.90;;;;;;4991438;28;20034;-69
2022/09/29 06:09:01;;;;;;;16.23;7.55;;;5.80;99.90;;;;;;5011303;28;20501;-66
2022/09/29 06:11:30;;;;;;;29.98;8.25;;;5.70;99.90;;;;;;5009740;28;20033;-65
2022/09/29 06:13:55;;;;;;;13.48;7.30;;;5.70;99.90;;;;;;5008624;28;20399;-66
2022/09/29 06:16:24;;;;;;;15.73;7.85;;;5.70;99.90;;;;;;5009591;28;20470;-65
2022/09/29 06:18:50;;;;;;;13.65;7.13;;;5.80;99.90;;;;;;5008619;28;20465;-66
2022/09/29 06:21:22;;;;;;;16.65;7.45;;;5.90;99.90;;;;;;4991654;28;20475;-65
2022/09/29 06:23:49;;;;;;;17.25;7.22;;;6.00;99.90;;;;;;4992078;28;20033;-65
2022/09/29 06:26:17;;;;;;;13.90;7.40;;;6.00;99.90;;;;;;5009419;28;20041;-65
2022/09/29 06:28:42;;;;;;;10.50;5.68;;;6.00;99.90;;;;;;5008502;28;20065;-65
2022/09/29 06:31:14;;;;;;;12.43;5.80;;;6.00;99.90;;;;;;5009379;28;20083;-65
2022/09/29 06:33:39;;;;;;;12.65;5.75;;;6.00;99.90;;;;;;5008697;28;20034;-65
2022/09/29 06:39:07;;;;;;;10.35;5.47;;;6.00;99.90;;;;;;5013578;28;20045;-66
2022/09/29 06:41:34;;;;;;;9.40;5.18;;;6.20;99.90;;;;;;5013519;28;20145;-65
2022/09/29 06:44:00;;;;;;;9.77;5.10;;;6.30;99.90;;;;;;5012922;28;20034;-66
2022/09/29 06:46:26;;;;;;;11.93;5.90;;;6.40;99.90;;;;;;5013750;28;20041;-65
2022/09/29 06:48:55;;;;;;;18.33;8.02;;;6.60;99.90;;;;;;5012602;28;20360;-64
2022/09/29 06:51:22;;;;;;;16.63;8.13;;;6.70;99.90;;;;;;5013245;28;20033;-66
2022/09/29 06:53:49;;;;;;;14.85;8.00;;;6.90;99.90;;;;;;5011908;28;20096;-65
2022/09/29 06:56:15;;;;;;;23.50;9.07;;;7.00;99.90;;;;;;5013070;28;20041;-65
2022/09/29 06:58:40;;;;;;;15.10;6.85;;;7.10;99.90;;;;;;5011670;28;20049;-68
2022/09/29 07:01:06;;;;;;;14.15;6.47;;;7.20;99.90;;;;;;5012865;28;20038;-64
2022/09/29 07:03:34;;;;;;;15.13;6.32;;;7.20;99.90;;;;;;5012943;28;20382;-64
2022/09/29 07:06:07;;;;;;;10.07;5.88;;;7.30;99.90;;;;;;5012322;28;20033;-64
2022/09/29 07:08:38;;;;;;;11.50;5.97;;;7.40;99.90;;;;;;5012643;28;20564;-66
2022/09/29 07:11:07;;;;;;;12.32;5.97;;;7.40;99.90;;;;;;5012719;28;20034;-66
2022/09/29 07:13:33;;;;;;;12.38;6.15;;;7.40;99.90;;;;;;5012885;28;20556;-65
2022/09/29 07:16:10;;;;;;;16.23;7.28;;;7.40;99.90;;;;;;5011655;28;20068;-64
2022/09/29 07:18:37;;;;;;;17.17;9.68;;;7.50;99.90;;;;;;5013153;28;20057;-66
2022/09/29 07:21:09;;;;;;;17.45;10.35;;;7.70;99.90;;;;;;5012179;28;20033;-65
2022/09/29 07:23:35;;;;;;;17.08;10.40;;;7.80;99.90;;;;;;5012374;28;20029;-66
2022/09/29 07:26:02;;;;;;;11.45;6.35;;;7.90;99.90;;;;;;5011605;28;20037;-65
2022/09/29 07:28:28;;;;;;;14.63;6.55;;;8.00;99.90;;;;;;5012640;28;20022;-67
2022/09/29 07:31:11;;;;;;;15.82;6.78;;;8.20;99.90;;;;;;5012067;28;20026;-65
2022/09/29 07:33:37;;;;;;;15.05;6.72;;;8.30;99.90;;;;;;5012364;28;20022;-69
2022/09/29 07:36:03;;;;;;;17.95;8.90;;;8.50;99.90;;;;;;5011261;28;20465;-65
2022/09/29 07:38:29;;;;;;;13.05;5.82;;;8.60;99.90;;;;;;5012258;28;20466;-63
2022/09/29 07:41:03;;;;;;;13.05;6.90;;;8.70;99.90;;;;;;5010850;28;20537;-64
2022/09/29 07:43:29;;;;;;;13.40;7.78;;;8.80;99.90;;;;;;5012064;28;20041;-65
2022/09/29 07:45:55;;;;;;;12.77;5.97;;;8.90;99.90;;;;;;5011579;28;20038;-66
2022/09/29 07:48:21;;;;;;;15.98;5.93;;;8.90;99.90;;;;;;5011691;28;20037;-65
2022/09/29 07:50:47;;;;;;;14.95;6.47;;;8.90;99.90;;;;;;5011484;28;20026;-64
2022/09/29 07:53:13;;;;;;;12.90;6.30;;;8.90;99.90;;;;;;5011763;28;20164;-65
2022/09/29 07:55:39;;;;;;;12.50;6.95;;;9.00;99.90;;;;;;5011952;28;20041;-69
2022/09/29 07:58:05;;;;;;;17.10;7.20;;;9.10;99.90;;;;;;5010789;28;20037;-66
2022/09/29 08:00:32;;;;;;;17.23;6.75;;;9.20;99.90;;;;;;5014362;28;20029;-66
2022/09/29 08:03:08;;;;;;;14.40;5.20;;;9.30;99.90;;;;;;5011188;28;20034;-65
2022/09/29 08:05:34;;;;;;;11.02;5.65;;;9.30;99.90;;;;;;5011930;28;20042;-65
2022/09/29 08:08:04;;;;;;;10.27;4.75;;;9.40;99.90;;;;;;5011165;28;20216;-66
2022/09/29 08:10:32;;;;;;;12.50;5.78;;;9.60;99.90;;;;;;5011899;28;20036;-66
2022/09/29 08:12:58;;;;;;;8.98;4.50;;;9.70;99.90;;;;;;5010939;28;20030;-66
2022/09/29 08:15:25;;;;;;;8.85;5.38;;;9.80;99.90;;;;;;5011539;28;20105;-65
2022/09/29 08:17:54;;;;;;;10.05;4.50;;;9.80;99.90;;;;;;5010693;28;20049;-66
2022/09/29 08:20:25;;;;;;;8.23;4.15;;;9.90;99.90;;;;;;5011734;28;20088;-64
2022/09/29 08:22:51;;;;;;;6.85;3.78;;;9.90;99.90;;;;;;4993064;28;20034;-66
2022/09/29 08:25:16;;;;;;;12.18;5.25;;;9.90;99.90;;;;;;5011613;28;20486;-65
2022/09/29 08:27:43;;;;;;;9.18;4.55;;;10.10;99.90;;;;;;5011162;28;20056;-68
2022/09/29 08:30:09;;;;;;;13.63;5.75;;;10.20;99.90;;;;;;5010872;28;20471;-65
2022/09/29 08:32:35;;;;;;;7.53;3.63;;;10.30;99.90;;;;;;4993886;28;20038;-66
2022/09/29 08:35:01;;;;;;;8.40;4.35;;;10.40;99.90;;;;;;5010617;28;20057;-66
2022/09/29 08:37:27;;;;;;;9.10;3.67;;;10.40;99.90;;;;;;5011041;28;20088;-63
2022/09/29 08:39:53;;;;;;;6.35;3.42;;;10.50;99.90;;;;;;5010364;28;20554;-67
2022/09/29 08:42:44;;;;;;;8.02;3.75;;;10.70;99.90;;;;;;5011300;28;20117;-65
2022/09/29 08:45:35;;;;;;;12.13;3.75;;;10.80;99.90;;;;;;5010996;28;20029;-66
2022/09/29 08:48:18;;;;;;;5.95;2.83;;;10.80;99.90;;;;;;5009491;28;20053;-63
2022/09/29 08:50:58;;;;;;;5.10;2.60;;;10.80;99.90;;;;;;5010439;28;20825;-70
2022/09/29 08:53:27;;;;;;;5.93;2.38;;;10.80;99.90;;;;;;5010956;28;20184;-65
2022/09/29 08:56:05;;;;;;;8.35;2.92;;;10.80;99.90;;;;;;5010227;28;20095;-65
2022/09/29 08:58:32;;;;;;;5.53;2.65;;;10.80;99.90;;;;;;5011036;28;20180;-64
2022/09/29 09:01:17;;;;;;;6.07;2.88;;;10.80;99.90;;;;;;5009447;28;20034;-65
2022/09/29 09:04:05;;;;;;;9.73;2.78;;;10.80;99.90;;;;;;5010812;28;20032;-70
2022/09/29 09:07:06;;;;;;;6.20;2.75;;;10.90;99.90;;;;;;5010918;28;20029;-65
2022/09/29 09:09:49;;;;;;;8.30;2.70;;;11.00;99.90;;;;;;5010880;28;20030;-65
2022/09/29 09:13:01;;;;;;;5.95;2.58;;;11.20;99.90;;;;;;5010987;28;20467;-66
2022/09/29 09:15:45;;;;;;;9.70;3.20;;;11.30;99.90;;;;;;4984227;28;20516;-65
2022/09/29 09:18:35;;;;;;;6.50;2.67;;;11.40;99.90;;;;;;4996685;28;20046;-65
2022/09/29 09:21:12;;;;;;;6.22;2.90;;;11.50;99.90;;;;;;5065926;28;20122;-65
2022/09/29 09:23:56;;;;;;;5.47;2.63;;;11.50;99.90;;;;;;5067225;28;20037;-66
2022/09/29 09:26:36;;;;;;;8.98;3.00;;;11.50;99.90;;;;;;5066864;28;20029;-65
2022/09/29 09:29:17;;;;;;;6.78;3.38;;;11.50;99.90;;;;;;5065810;28;20028;-64
2022/09/29 09:31:53;;;;;;;7.10;3.38;;;11.30;99.90;;;;;;5066747;28;20040;-65
2022/09/29 09:34:22;;;;;;;14.55;6.25;;;11.30;99.90;;;;;;5066629;28;20029;-63
2022/09/29 09:37:00;;;;;;;12.30;3.78;;;11.20;99.90;;;;;;5066341;28;20035;-69
2022/09/29 09:39:28;;;;;;;8.90;3.70;;;11.20;99.90;;;;;;5066816;28;20393;-66
2022/09/29 09:41:58;;;;;;;8.90;3.65;;;11.30;99.90;;;;;;5065938;28;20033;-64
2022/09/29 09:44:51;;;;;;;9.57;4.05;;;11.30;99.90;;;;;;5066415;28;20028;-65
2022/09/29 09:47:30;;;;;;;12.45;4.88;;;11.30;99.90;;;;;;5066705;28;20403;-65
2022/09/29 09:50:02;;;;;;;9.40;3.92;;;11.40;99.90;;;;;;5065464;28;20045;-66
2022/09/29 09:52:43;;;;;;;12.60;3.95;;;11.40;99.90;;;;;;5066056;28;20024;-64
2022/09/29 09:55:18;;;;;;;8.68;4.07;;;11.50;99.90;;;;;;5064816;28;20394;-66
2022/09/29 09:58:02;;;;;;;7.53;3.85;;;11.70;99.90;;;;;;5064530;28;20032;-63
2022/09/29 10:00:40;;;;;;;6.93;3.72;;;11.80;99.90;;;;;;5064624;28;20033;-66
2022/09/29 10:03:08;;;;;;;7.03;3.40;;;11.70;99.90;;;;;;5063931;28;20649;-66
2022/09/29 10:05:45;;;;;;;10.32;3.38;;;11.80;99.90;;;;;;5065955;28;20086;-65
2022/09/29 10:08:29;;;;;;;8.05;3.92;;;12.10;99.90;;;;;;5065274;28;20028;-65
2022/09/29 10:10:56;;;;;;;6.20;3.50;;;12.20;99.90;;;;;;5065019;28;20131;-66
2022/09/29 10:13:25;;;;;;;5.70;3.30;;;12.40;99.90;;;;;;5065528;28;20025;-64
2022/09/29 10:16:15;;;;;;;8.32;3.83;;;12.60;99.90;;;;;;5050548;28;20095;-66
2022/09/29 10:18:51;;;;;;;5.95;3.08;;;12.40;99.90;;;;;;5065735;28;20508;-67
2022/09/29 10:21:34;;;;;;;5.55;3.08;;;12.30;99.90;;;;;;5065784;28;20505;-64
2022/09/29 10:24:02;;;;;;;5.82;3.38;;;12.50;99.90;;;;;;5064850;28;20059;-64
2022/09/29 10:26:41;;;;;;;8.25;3.38;;;12.50;99.90;;;;;;5065509;28;20032;-63
2022/09/29 10:29:43;;;;;;;9.60;3.35;;;12.60;99.90;;;;;;5064620;28;20844;-64
2022/09/29 10:32:23;;;;;;;6.57;3.22;;;12.40;99.90;;;;;;5049894;28;20029;-66
2022/09/29 10:35:00;;;;;;;8.55;3.28;;;12.50;99.90;;;;;;5051903;28;20036;-68
2022/09/29 10:37:47;;;;;;;5.65;3.22;;;12.50;99.90;;;;;;5052150;28;20064;-67
2022/09/29 10:40:16;;;;;;;5.43;3.20;;;12.60;99.90;;;;;;5051163;28;20111;-65
2022/09/29 10:42:45;;;;;;;6.07;3.33;;;12.50;99.90;;;;;;5052174;28;20028;-64
2022/09/29 10:45:23;;;;;;;12.40;2.97;;;12.60;99.90;;;;;;5050810;28;20147;-65
2022/09/29 10:48:12;;;;;;;5.78;2.75;;;12.60;99.90;;;;;;5051738;28;20036;-68
2022/09/29 10:50:48;;;;;;;6.78;2.58;;;12.70;99.90;;;;;;5052161;28;20065;-65
2022/09/29 10:53:40;;;;;;;7.47;3.00;;;12.70;99.90;;;;;;5051570;28;20025;-66
2022/09/29 10:56:21;;;;;;;6.80;3.20;;;12.90;99.90;;;;;;5050692;28;20040;-67
2022/09/29 10:58:58;;;;;;;6.40;2.95;;;12.90;99.90;;;;;;5051492;28;20033;-64
2022/09/29 11:01:26;;;;;;;6.82;3.22;;;12.90;99.90;;;;;;5051802;28;20644;-65
2022/09/29 11:04:05;;;;;;;7.30;2.90;;;13.00;99.90;;;;;;5051254;28;20108;-70
2022/09/29 11:06:37;;;;;;;6.88;3.05;;;13.10;99.90;;;;;;5051450;28;20037;-66
2022/09/29 11:09:05;;;;;;;4.63;2.55;;;13.10;99.90;;;;;;5050285;28;20033;-65
2022/09/29 11:11:38;;;;;;;5.95;2.80;;;12.90;99.90;;;;;;5051535;28;20036;-64
2022/09/29 11:14:04;;;;;;;7.50;2.50;;;12.80;99.90;;;;;;5050339;28;20155;-67
2022/09/29 11:16:36;;;;;;;8.68;3.25;;;12.70;99.90;;;;;;5051177;28;20382;-66
2022/09/29 11:19:13;;;;;;;5.22;2.60;;;12.70;99.90;;;;;;5050424;28;20053;-66
2022/09/29 11:21:42;;;;;;;5.90;2.92;;;12.90;99.90;;;;;;5050034;28;20461;-65
2022/09/29 11:24:31;;;;;;;7.78;2.75;;;12.90;99.90;;;;;;5050359;28;20029;-65
2022/09/29 11:27:09;;;;;;;8.35;2.40;;;13.10;99.90;;;;;;5050538;28;20056;-64
2022/09/29 11:29:52;;;;;;;5.88;2.25;;;13.00;99.90;;;;;;5051206;28;20047;-66
2022/09/29 11:32:30;;;;;;;8.23;2.00;;;13.10;99.90;;;;;;5050863;28;20036;-67
2022/09/29 11:35:16;;;;;;;5.97;2.25;;;13.20;99.90;;;;;;5050333;28;20416;-67
2022/09/29 11:38:13;;;;;;;7.95;2.47;;;13.30;99.90;;;;;;5051361;28;20029;-66
2022/09/29 11:41:14;;;;;;;4.57;2.20;;;13.30;99.90;;;;;;5050924;28;20041;-65
2022/09/29 11:43:54;;;;;;;6.00;2.65;;;13.30;99.90;;;;;;5049683;28;20025;-66
2022/09/29 11:46:48;;;;;;;5.30;2.13;;;13.30;99.90;;;;;;5051070;28;20041;-67
2022/09/29 11:49:25;;;;;;;4.60;1.85;;;13.30;99.90;;;;;;5049809;28;20477;-66
2022/09/29 11:52:11;;;;;;;4.90;2.15;;;13.50;99.90;;;;;;5050814;28;20061;-66
2022/09/29 11:54:59;;;;;;;4.57;2.03;;;13.70;99.90;;;;;;5050406;28;20101;-65
2022/09/29 11:57:37;;;;;;;7.82;2.50;;;13.90;99.90;;;;;;5043037;28;20516;-66
2022/09/29 12:00:11;;;;;;;6.28;2.63;;;13.90;99.90;;;;;;5049689;28;20087;-64
2022/09/29 12:02:55;;;;;;;6.95;2.10;;;13.80;99.90;;;;;;5050771;28;20041;-64
2022/09/29 12:05:30;;;;;;;7.90;3.67;;;13.80;99.90;;;;;;5050182;28;20048;-66
2022/09/29 12:08:26;;;;;;;4.20;2.08;;;13.90;99.90;;;;;;5049786;28;20033;-71
2022/09/29 12:11:06;;;;;;;6.10;2.42;;;13.80;99.90;;;;;;5050126;28;20036;-65
2022/09/29 12:13:47;;;;;;;10.43;2.15;;;13.90;99.90;;;;;;5050380;28;20029;-66
2022/09/29 12:16:19;;;;;;;3.90;1.77;;;13.80;99.90;;;;;;5049560;28;20025;-64
2022/09/29 12:18:58;;;;;;;3.72;1.70;;;13.80;99.90;;;;;;5049751;28;20037;-64
2022/09/29 12:21:45;;;;;;;5.45;1.90;;;13.80;99.90;;;;;;5050120;28;20078;-65
2022/09/29 12:24:32;;;;;;;4.70;1.90;;;13.70;99.90;;;;;;5049283;28;20468;-66
2022/09/29 12:27:00;;;;;;;5.13;1.90;;;13.70;99.90;;;;;;5049303;28;20104;-69
2022/09/29 12:29:40;;;;;;;3.60;1.70;;;13.70;99.90;;;;;;5050012;28;20025;-66
2022/09/29 12:32:31;;;;;;;4.85;1.83;;;13.80;99.90;;;;;;5049253;28;20032;-67
2022/09/29 12:35:12;;;;;;;6.82;1.90;;;13.70;99.90;;;;;;5049599;28;20037;-70
2022/09/29 12:37:52;;;;;;;3.45;1.80;;;13.60;99.90;;;;;;5049996;28;20029;-64
2022/09/29 12:40:47;;;;;;;4.65;1.83;;;13.90;99.90;;;;;;5048964;28;20041;-64
2022/09/29 12:43:29;;;;;;;2.35;1.50;;;14.40;99.90;;;;;;5026841;28;20080;-67
2022/09/29 12:46:19;;;;;;;6.22;1.73;;;14.80;99.90;;;;;;5043599;28;20069;-66
2022/09/29 12:49:08;;;;;;;4.38;1.77;;;14.90;99.90;;;;;;5038726;28;20029;-66
2022/09/29 12:51:51;;;;;;;7.20;2.50;;;15.10;99.90;;;;;;5045298;28;20071;-64
2022/09/29 12:54:24;;;;;;;5.45;2.10;;;15.30;99.90;;;;;;5041264;28;20673;-64
2022/09/29 12:57:13;;;;;;;4.57;2.10;;;15.30;99.90;;;;;;5049534;28;20435;-66
2022/09/29 12:59:48;;;;;;;6.20;1.88;;;15.20;99.90;;;;;;5049498;28;20109;-65
2022/09/29 13:03:01;;;;;;;5.90;2.35;;;15.00;99.90;;;;;;5048309;28;20108;-66
2022/09/29 13:05:42;;;;;;;6.32;2.28;;;14.80;99.90;;;;;;5029632;28;20032;-65
2022/09/29 13:08:27;;;;;;;3.90;1.98;;;14.90;99.90;;;;;;5028828;28;20136;-66
2022/09/29 13:11:01;;;;;;;4.03;2.05;;;14.60;99.90;;;;;;5033768;28;20033;-64
2022/09/29 13:13:48;;;;;;;3.80;2.10;;;14.70;99.90;;;;;;5049092;28;20028;-64
2022/09/29 13:16:23;;;;;;;5.45;2.10;;;14.90;99.90;;;;;;5048505;28;20031;-66
2022/09/29 13:19:16;;;;;;;6.53;2.15;;;15.00;99.90;;;;;;5049113;28;20553;-66
2022/09/29 13:21:57;;;;;;;5.30;1.98;;;14.90;99.90;;;;;;5049610;28;20112;-67